createdAt,value
2018-06-02T00:02:11.530Z,27.70
2018-06-02T00:04:39.928Z,27.70
2018-06-02T00:07:07.422Z,27.70
2018-06-02T00:09:35.667Z,27.70
2018-06-02T00:12:03.144Z,27.70
2018-06-02T00:14:30.637Z,27.70
2018-06-02T00:16:58.121Z,27.70
2018-06-02T00:19:26.373Z,27.70
2018-06-02T00:21:53.849Z,27.70
2018-06-02T00:24:21.334Z,27.70
2018-06-02T00:26:48.805Z,27.70
2018-06-02T00:29:16.340Z,27.70
2018-06-02T00:31:43.818Z,27.70
2018-06-02T00:34:11.396Z,27.60
2018-06-02T00:36:39.065Z,27.70
2018-06-02T00:39:06.624Z,27.70
2018-06-02T00:41:34.199Z,27.70
2018-06-02T00:44:01.788Z,27.70
2018-06-02T00:46:29.344Z,27.60
2018-06-02T00:48:56.833Z,27.70
2018-06-02T00:51:24.308Z,27.60
2018-06-02T00:53:51.791Z,27.60
2018-06-02T00:56:19.345Z,27.60
2018-06-02T00:58:46.848Z,27.60
2018-06-02T01:01:15.100Z,27.60
2018-06-02T01:03:42.672Z,27.60
2018-06-02T01:06:10.154Z,27.60
2018-06-02T01:08:37.692Z,27.60
2018-06-02T01:11:05.178Z,27.60
2018-06-02T01:13:32.657Z,27.60
2018-06-02T01:16:00.142Z,27.60
2018-06-02T01:18:27.623Z,27.60
2018-06-02T01:20:55.223Z,27.60
2018-06-02T01:23:22.637Z,27.60
2018-06-02T01:25:50.125Z,27.50
2018-06-02T01:28:17.643Z,27.60
2018-06-02T01:30:45.125Z,27.60
2018-06-02T01:33:12.709Z,27.60
2018-06-02T01:35:40.724Z,27.50
2018-06-02T01:38:08.271Z,27.50
2018-06-02T01:40:35.745Z,27.50
2018-06-02T01:43:03.240Z,27.50
2018-06-02T01:45:31.501Z,27.60
2018-06-02T01:47:58.972Z,27.50
2018-06-02T01:50:26.461Z,27.50
2018-06-02T01:52:53.944Z,27.50
2018-06-02T01:55:21.432Z,27.60
2018-06-02T01:57:49.764Z,27.60
2018-06-02T02:00:17.250Z,27.50
2018-06-02T02:02:44.740Z,27.50
2018-06-02T02:05:12.230Z,27.60
2018-06-02T02:07:40.476Z,27.50
2018-06-02T02:10:07.949Z,27.50
2018-06-02T02:12:35.435Z,27.60
2018-06-02T02:15:02.978Z,27.50
2018-06-02T02:17:30.481Z,27.50
2018-06-02T02:19:57.958Z,27.50
2018-06-02T02:22:25.432Z,27.50
2018-06-02T02:24:53.687Z,27.50
2018-06-02T02:27:21.182Z,27.50
2018-06-02T02:29:48.722Z,27.50
2018-06-02T02:32:16.202Z,27.50
2018-06-02T02:34:43.696Z,27.50
2018-06-02T02:37:11.248Z,27.50
2018-06-02T02:39:38.736Z,27.50
2018-06-02T02:42:06.265Z,27.50
2018-06-02T02:44:33.838Z,27.50
2018-06-02T02:47:01.317Z,27.50
2018-06-02T02:49:28.788Z,27.50
2018-06-02T02:51:56.350Z,27.50
2018-06-02T02:54:23.834Z,27.50
2018-06-02T02:56:51.316Z,27.50
2018-06-02T02:59:18.798Z,27.50
2018-06-02T03:01:46.297Z,27.40
2018-06-02T03:04:13.789Z,27.50
2018-06-02T03:06:41.278Z,27.50
2018-06-02T03:09:08.855Z,27.40
2018-06-02T03:11:36.337Z,27.40
2018-06-02T03:14:03.825Z,27.40
2018-06-02T03:16:31.330Z,27.50
2018-06-02T03:18:58.810Z,27.40
2018-06-02T03:21:26.295Z,27.40
2018-06-02T03:23:53.789Z,27.40
2018-06-02T03:26:21.266Z,27.50
2018-06-02T03:28:48.817Z,27.50
2018-06-02T03:31:16.321Z,27.50
2018-06-02T03:33:43.801Z,27.40
2018-06-02T03:36:12.063Z,27.40
2018-06-02T03:38:39.589Z,27.40
2018-06-02T03:41:07.080Z,27.40
2018-06-02T03:43:34.561Z,27.40
2018-06-02T03:46:02.048Z,27.40
2018-06-02T03:48:29.546Z,27.40
2018-06-02T03:50:57.878Z,27.40
2018-06-02T03:53:25.365Z,27.40
2018-06-02T03:55:52.872Z,27.40
2018-06-02T03:58:21.137Z,27.40
2018-06-02T04:00:48.616Z,27.40
2018-06-02T04:03:16.111Z,27.40
2018-06-02T04:05:44.447Z,27.40
2018-06-02T04:08:12.024Z,27.40
2018-06-02T04:10:39.497Z,27.40
2018-06-02T04:13:07.001Z,27.40
2018-06-02T04:15:35.341Z,27.40
2018-06-02T04:18:02.918Z,27.40
2018-06-02T04:20:30.413Z,27.40
2018-06-02T04:22:57.896Z,27.40
2018-06-02T04:25:25.383Z,27.40
2018-06-02T04:27:53.621Z,27.40
2018-06-02T04:30:26.924Z,27.40
2018-06-02T04:32:54.400Z,27.40
2018-06-02T04:35:21.896Z,27.40
2018-06-02T04:37:49.381Z,27.40
2018-06-02T04:40:17.713Z,27.40
2018-06-02T04:42:45.280Z,27.40
2018-06-02T04:45:12.772Z,27.40
2018-06-02T04:47:40.282Z,27.30
2018-06-02T04:50:07.765Z,27.30
2018-06-02T04:52:36.034Z,27.30
2018-06-02T04:55:03.575Z,27.40
2018-06-02T04:57:31.063Z,27.30
2018-06-02T04:59:58.615Z,27.30
2018-06-02T05:02:26.188Z,27.30
2018-06-02T05:04:53.681Z,27.30
2018-06-02T05:07:21.166Z,27.30
2018-06-02T05:09:48.664Z,27.30
2018-06-02T05:12:16.934Z,27.30
2018-06-02T05:14:44.441Z,27.30
2018-06-02T05:17:11.979Z,27.30
2018-06-02T05:19:39.633Z,27.30
2018-06-02T05:22:07.117Z,27.30
2018-06-02T05:24:34.654Z,27.30
2018-06-02T05:27:02.217Z,27.30
2018-06-02T05:29:29.815Z,27.30
2018-06-02T05:31:57.301Z,27.30
2018-06-02T05:34:24.815Z,27.30
2018-06-02T05:36:52.300Z,27.30
2018-06-02T05:39:19.883Z,27.30
2018-06-02T05:41:47.396Z,27.30
2018-06-02T05:44:15.681Z,27.30
2018-06-02T05:46:43.222Z,27.30
2018-06-02T05:49:10.799Z,27.30
2018-06-02T05:51:38.307Z,27.30
2018-06-02T05:54:06.642Z,27.30
2018-06-02T05:56:34.208Z,27.30
2018-06-02T05:59:01.893Z,27.20
2018-06-02T06:01:29.395Z,27.20
2018-06-02T06:03:56.870Z,27.20
2018-06-02T06:06:24.405Z,27.20
2018-06-02T06:08:51.893Z,27.20
2018-06-02T06:11:19.439Z,27.20
2018-06-02T06:13:47.095Z,27.20
2018-06-02T06:16:14.581Z,27.20
2018-06-02T06:18:42.092Z,27.20
2018-06-02T06:21:09.585Z,27.20
2018-06-02T06:23:37.929Z,27.20
2018-06-02T06:26:05.416Z,27.20
2018-06-02T06:28:32.960Z,27.20
2018-06-02T06:31:00.442Z,27.20
2018-06-02T06:33:27.945Z,27.20
2018-06-02T06:35:56.288Z,27.20
2018-06-02T06:38:23.911Z,27.20
2018-06-02T06:40:51.568Z,27.20
2018-06-02T06:43:19.153Z,27.10
2018-06-02T06:45:46.690Z,27.10
2018-06-02T06:48:14.175Z,27.10
2018-06-02T06:50:41.715Z,27.10
2018-06-02T06:53:09.955Z,27.10
2018-06-02T06:55:37.485Z,27.20
2018-06-02T06:58:04.984Z,27.10
2018-06-02T07:00:32.537Z,27.20
2018-06-02T07:03:00.100Z,27.10
2018-06-02T07:05:27.884Z,27.10
2018-06-02T07:07:55.380Z,27.10
2018-06-02T07:10:23.001Z,27.10
2018-06-02T07:12:51.239Z,27.10
2018-06-02T07:15:18.788Z,27.10
2018-06-02T07:17:46.458Z,27.10
2018-06-02T07:20:14.065Z,27.10
2018-06-02T07:22:41.651Z,27.10
2018-06-02T07:25:09.298Z,27.10
2018-06-02T07:27:37.647Z,27.10
2018-06-02T07:30:05.141Z,27.10
2018-06-02T07:32:32.642Z,27.10
2018-06-02T07:35:00.140Z,27.10
2018-06-02T07:37:28.471Z,27.10
2018-06-02T07:39:56.130Z,27.10
2018-06-02T07:42:23.682Z,27.10
2018-06-02T07:44:51.182Z,27.10
2018-06-02T07:47:18.788Z,27.10
2018-06-02T07:49:46.379Z,27.10
2018-06-02T07:52:13.926Z,27.10
2018-06-02T07:54:41.482Z,27.10
2018-06-02T07:57:09.509Z,27.10
2018-06-02T07:59:36.984Z,27.10
2018-06-02T08:02:05.334Z,27.10
2018-06-02T08:04:32.895Z,27.10
2018-06-02T08:07:00.611Z,27.10
2018-06-02T08:09:28.082Z,27.10
2018-06-02T08:11:55.573Z,27.10
2018-06-02T08:14:23.112Z,27.10
2018-06-02T08:16:50.635Z,27.10
2018-06-02T08:19:18.170Z,27.10
2018-06-02T08:21:46.548Z,27.10
2018-06-02T08:24:14.136Z,27.10
2018-06-02T08:26:41.688Z,27.10
2018-06-02T08:29:09.374Z,27.10
2018-06-02T08:31:36.958Z,27.10
2018-06-02T08:34:04.475Z,27.10
2018-06-02T08:36:31.960Z,27.10
2018-06-02T08:38:59.533Z,27.00
2018-06-02T08:41:26.997Z,26.90
2018-06-02T08:43:54.486Z,26.80
2018-06-02T08:46:22.074Z,26.70
2018-06-02T08:48:49.548Z,26.70
2018-06-02T08:51:17.800Z,26.20
2018-06-02T08:53:45.274Z,26.20
2018-06-02T08:56:12.851Z,26.10
2018-06-02T08:58:40.336Z,26.10
2018-06-02T09:01:07.850Z,26.10
2018-06-02T09:03:36.164Z,26.00
2018-06-02T09:06:03.645Z,26.00
2018-06-02T09:08:31.209Z,25.90
2018-06-02T09:10:58.688Z,26.00
2018-06-02T09:13:26.205Z,25.90
2018-06-02T09:15:53.718Z,26.00
2018-06-02T09:18:21.209Z,26.00
2018-06-02T09:20:48.740Z,26.10
2018-06-02T09:23:16.240Z,26.10
2018-06-02T09:25:43.826Z,26.10
2018-06-02T09:28:11.396Z,26.20
2018-06-02T09:30:38.990Z,26.20
2018-06-02T09:33:06.496Z,26.20
2018-06-02T09:35:34.897Z,26.30
2018-06-02T09:38:02.393Z,26.30
2018-06-02T09:40:30.044Z,26.30
2018-06-02T09:42:57.581Z,26.30
2018-06-02T09:45:25.837Z,26.40
2018-06-02T09:47:53.702Z,26.40
2018-06-02T09:50:21.242Z,26.40
2018-06-02T09:52:48.937Z,26.40
2018-06-02T09:55:17.453Z,26.40
2018-06-02T09:57:45.055Z,26.40
2018-06-02T10:00:12.795Z,26.40
2018-06-02T10:02:40.501Z,26.40
2018-06-02T10:05:08.023Z,26.40
2018-06-02T10:07:35.605Z,26.40
2018-06-02T10:10:03.169Z,26.40
2018-06-02T10:12:30.789Z,26.40
2018-06-02T10:14:58.320Z,26.50
2018-06-02T10:17:25.943Z,26.50
2018-06-02T10:19:54.297Z,26.50
2018-06-02T10:22:21.857Z,26.50
2018-06-02T10:24:49.353Z,26.50
2018-06-02T10:27:16.956Z,26.50
2018-06-02T10:29:45.273Z,26.60
2018-06-02T10:32:12.790Z,26.60
2018-06-02T10:34:40.361Z,26.60
2018-06-02T10:37:10.136Z,26.60
2018-06-02T10:39:37.741Z,26.60
2018-06-02T10:42:05.242Z,26.60
2018-06-02T10:44:32.787Z,26.60
2018-06-02T10:47:01.292Z,26.60
2018-06-02T10:49:28.814Z,26.60
2018-06-02T10:51:56.393Z,26.60
2018-06-02T10:54:23.870Z,26.60
2018-06-02T10:56:51.416Z,26.60
2018-06-02T10:59:19.774Z,26.70
2018-06-02T11:01:47.498Z,26.70
2018-06-02T11:04:16.506Z,26.70
2018-06-02T11:06:44.123Z,26.70
2018-06-02T11:09:11.786Z,26.70
2018-06-02T11:11:39.323Z,26.80
2018-06-02T11:14:06.797Z,26.70
2018-06-02T11:16:34.300Z,26.70
2018-06-02T11:19:01.884Z,26.70
2018-06-02T11:21:29.429Z,26.60
2018-06-02T11:23:57.049Z,26.60
2018-06-02T11:26:24.760Z,26.40
2018-06-02T11:28:53.133Z,26.50
2018-06-02T11:31:21.387Z,26.60
2018-06-02T11:33:48.929Z,26.60
2018-06-02T11:36:16.490Z,26.50
2018-06-02T11:38:44.189Z,26.50
2018-06-02T11:41:11.868Z,26.50
2018-06-02T11:43:39.407Z,26.50
2018-06-02T11:46:07.660Z,26.50
2018-06-02T11:48:35.134Z,26.50
2018-06-02T11:51:03.556Z,26.50
2018-06-02T11:53:31.797Z,26.60
2018-06-02T11:55:59.288Z,26.50
2018-06-02T11:58:27.573Z,26.50
2018-06-02T12:00:55.104Z,26.50
2018-06-02T12:03:22.647Z,26.40
2018-06-02T12:05:50.960Z,26.50
2018-06-02T12:08:18.528Z,26.50
2018-06-02T12:10:46.091Z,26.50
2018-06-02T12:13:13.694Z,26.50
2018-06-02T12:15:41.227Z,26.30
2018-06-02T12:18:08.713Z,26.30
2018-06-02T12:20:36.228Z,26.30
2018-06-02T12:23:03.669Z,26.40
2018-06-02T12:25:31.152Z,26.30
2018-06-02T12:27:58.648Z,26.40
2018-06-02T12:30:27.069Z,26.40
2018-06-02T12:32:55.462Z,26.40
2018-06-02T12:35:23.706Z,26.40
2018-06-02T12:37:51.238Z,26.40
2018-06-02T12:40:18.822Z,26.30
2018-06-02T12:42:46.421Z,26.40
2018-06-02T12:45:13.914Z,26.40
2018-06-02T12:47:42.195Z,26.40
2018-06-02T12:50:09.643Z,26.40
2018-06-02T12:52:37.131Z,26.40
2018-06-02T12:55:04.626Z,26.30
2018-06-02T12:57:32.944Z,26.30
2018-06-02T13:00:00.520Z,26.30
2018-06-02T13:02:28.093Z,26.30
2018-06-02T13:04:55.589Z,26.20
2018-06-02T13:07:23.092Z,26.20
2018-06-02T13:09:50.687Z,26.30
2018-06-02T13:12:19.704Z,26.30
2018-06-02T13:14:47.293Z,26.30
2018-06-02T13:17:14.876Z,26.30
2018-06-02T13:19:42.379Z,26.30
2018-06-02T13:22:10.055Z,26.30
2018-06-02T13:24:37.556Z,26.30
2018-06-02T13:27:05.029Z,26.30
2018-06-02T13:29:32.514Z,26.30
2018-06-02T13:32:00.013Z,26.30
2018-06-02T13:34:27.534Z,26.30
2018-06-02T13:36:55.029Z,26.30
2018-06-02T13:39:22.512Z,26.30
2018-06-02T13:41:49.999Z,26.30
2018-06-02T13:44:17.525Z,26.30
2018-06-02T13:46:45.044Z,26.30
2018-06-02T13:49:12.546Z,26.30
2018-06-02T13:51:40.131Z,26.30
2018-06-02T13:54:08.376Z,26.30
2018-06-02T13:56:35.857Z,26.30
2018-06-02T13:59:03.396Z,26.30
2018-06-02T14:01:30.876Z,26.30
2018-06-02T14:03:58.391Z,26.30
2018-06-02T14:06:26.816Z,26.30
2018-06-02T14:08:54.385Z,26.30
2018-06-02T14:11:21.963Z,26.30
2018-06-02T14:13:49.545Z,26.30
2018-06-02T14:16:17.037Z,26.30
2018-06-02T14:18:44.775Z,26.30
2018-06-02T14:21:12.233Z,26.30
2018-06-02T14:23:39.717Z,26.30
2018-06-02T14:26:07.267Z,26.30
2018-06-02T14:28:35.505Z,26.30
2018-06-02T14:31:03.000Z,26.30
2018-06-02T14:33:30.546Z,26.40
2018-06-02T14:35:58.097Z,26.30
2018-06-02T14:38:25.590Z,26.30
2018-06-02T14:40:53.873Z,26.30
2018-06-02T14:43:21.365Z,26.30
2018-06-02T14:45:48.848Z,26.30
2018-06-02T14:48:17.123Z,26.30
2018-06-02T14:50:44.603Z,26.30
2018-06-02T14:53:12.851Z,26.30
2018-06-02T14:55:40.413Z,26.30
2018-06-02T14:58:08.009Z,26.30
2018-06-02T15:00:35.499Z,26.30
2018-06-02T15:03:03.041Z,26.30
2018-06-02T15:05:30.593Z,26.30
2018-06-02T15:07:58.080Z,26.30
2018-06-02T15:10:25.704Z,26.30
2018-06-02T15:12:54.028Z,26.30
2018-06-02T15:15:21.504Z,26.30
2018-06-02T15:17:49.003Z,26.30
2018-06-02T15:20:16.521Z,26.30
2018-06-02T15:22:44.829Z,26.40
2018-06-02T15:25:12.498Z,26.40
2018-06-02T15:27:39.969Z,26.40
2018-06-02T15:30:07.528Z,26.40
2018-06-02T15:32:35.856Z,26.40
2018-06-02T15:35:03.350Z,26.40
2018-06-02T15:37:30.895Z,26.30
2018-06-02T15:39:58.385Z,26.40
2018-06-02T15:42:27.380Z,26.30
2018-06-02T15:44:54.889Z,26.30
2018-06-02T15:47:23.141Z,26.30
2018-06-02T15:49:52.132Z,26.40
2018-06-02T15:52:19.714Z,26.40
2018-06-02T15:54:47.307Z,26.40
2018-06-02T15:57:14.778Z,26.40
2018-06-02T15:59:42.453Z,26.40
2018-06-02T16:02:09.864Z,26.30
2018-06-02T16:04:37.340Z,26.30
2018-06-02T16:07:04.929Z,26.30
2018-06-02T16:09:32.414Z,26.30
2018-06-02T16:11:59.949Z,26.30
2018-06-02T16:14:27.446Z,26.30
2018-06-02T16:16:54.924Z,26.30
2018-06-02T16:19:22.446Z,26.40
2018-06-02T16:21:50.795Z,26.40
2018-06-02T16:24:18.265Z,26.40
2018-06-02T16:26:45.809Z,26.40
2018-06-02T16:29:13.333Z,26.40
2018-06-02T16:31:40.791Z,26.40
2018-06-02T16:34:08.273Z,26.40
2018-06-02T16:36:36.534Z,26.40
2018-06-02T16:39:04.066Z,26.40
2018-06-02T16:41:31.584Z,26.40
2018-06-02T16:43:59.076Z,26.40
2018-06-02T16:46:27.420Z,26.30
2018-06-02T16:48:55.072Z,26.30
2018-06-02T16:51:22.656Z,26.30
2018-06-02T16:53:50.242Z,26.30
2018-06-02T16:56:17.805Z,26.40
2018-06-02T16:58:45.376Z,26.30
2018-06-02T17:01:12.857Z,26.30
2018-06-02T17:03:40.349Z,26.30
2018-06-02T17:06:07.893Z,26.30
2018-06-02T17:08:35.487Z,26.30
2018-06-02T17:11:03.118Z,26.30
2018-06-02T17:13:30.607Z,26.30
2018-06-02T17:15:58.108Z,26.30
2018-06-02T17:18:25.589Z,26.30
2018-06-02T17:20:53.117Z,26.30
2018-06-02T17:23:20.749Z,26.30
2018-06-02T17:25:48.217Z,26.30
2018-06-02T17:28:15.713Z,26.30
2018-06-02T17:30:43.195Z,26.30
2018-06-02T17:33:10.801Z,26.30
2018-06-02T17:35:38.279Z,26.30
2018-06-02T17:38:05.776Z,26.30
2018-06-02T17:40:34.022Z,26.20
2018-06-02T17:43:01.591Z,26.20
2018-06-02T17:45:29.097Z,26.20
2018-06-02T17:47:57.441Z,26.20
2018-06-02T17:50:25.010Z,26.20
2018-06-02T17:52:52.484Z,26.20
2018-06-02T17:55:20.001Z,26.20
2018-06-02T17:57:48.270Z,26.20
2018-06-02T18:00:15.756Z,26.20
2018-06-02T18:02:43.248Z,26.20
2018-06-02T18:05:11.624Z,26.20
2018-06-02T18:07:39.088Z,26.20
2018-06-02T18:10:06.601Z,26.10
2018-06-02T18:12:34.861Z,26.20
2018-06-02T18:15:37.328Z,26.20
2018-06-02T18:18:05.421Z,26.20
2018-06-02T18:20:33.756Z,26.20
2018-06-02T18:23:01.947Z,26.20
2018-06-02T18:25:30.273Z,26.20
2018-06-02T18:27:58.520Z,26.20
2018-06-02T18:30:26.693Z,26.20
2018-06-02T18:32:54.754Z,26.20
2018-06-02T18:35:22.871Z,26.10
2018-06-02T18:37:50.955Z,26.10
2018-06-02T18:40:19.053Z,26.10
2018-06-02T18:42:47.157Z,26.20
2018-06-02T18:45:15.241Z,26.20
2018-06-02T18:47:43.333Z,26.20
2018-06-02T18:50:11.423Z,26.10
2018-06-02T18:52:39.540Z,26.20
2018-06-02T18:55:07.612Z,26.10
2018-06-02T18:57:35.793Z,26.20
2018-06-02T19:00:04.017Z,26.10
2018-06-02T19:02:32.126Z,26.10
2018-06-02T19:05:00.237Z,26.10
2018-06-02T19:07:28.402Z,26.10
2018-06-02T19:09:56.648Z,26.10
2018-06-02T19:14:52.609Z,26.10
2018-06-02T19:17:20.688Z,26.10
2018-06-02T19:19:48.861Z,26.10
2018-06-02T19:22:16.940Z,26.00
2018-06-02T19:24:44.997Z,26.10
2018-06-02T19:27:13.100Z,26.10
2018-06-02T19:29:41.201Z,26.10
2018-06-02T19:32:09.281Z,26.10
2018-06-02T19:34:37.361Z,26.00
2018-06-02T19:37:05.441Z,26.00
2018-06-02T19:39:33.545Z,26.00
2018-06-02T19:42:01.666Z,26.00
2018-06-02T19:44:29.794Z,26.10
2018-06-02T19:46:57.939Z,26.10
2018-06-02T19:49:26.025Z,26.00
2018-06-02T19:51:54.108Z,26.00
2018-06-02T19:54:22.192Z,26.00
2018-06-02T19:56:50.719Z,26.00
2018-06-02T19:59:18.792Z,26.00
2018-06-02T20:01:46.916Z,26.00
2018-06-02T20:04:15.010Z,26.00
2018-06-02T20:09:10.954Z,26.00
2018-06-02T20:11:39.042Z,26.00
2018-06-02T20:14:07.152Z,26.00
2018-06-02T20:16:35.224Z,26.00
2018-06-02T20:19:03.292Z,26.00
2018-06-02T20:21:31.415Z,26.00
2018-06-02T20:23:59.513Z,26.00
2018-06-02T20:26:27.609Z,26.00
2018-06-02T20:28:55.723Z,26.00
2018-06-02T20:31:23.814Z,25.90
2018-06-02T20:33:51.889Z,25.90
2018-06-02T20:36:19.961Z,25.90
2018-06-02T20:38:48.040Z,26.00
2018-06-02T20:41:16.189Z,25.90
2018-06-02T20:46:12.190Z,25.90
2018-06-02T20:48:40.353Z,25.90
2018-06-02T20:51:08.490Z,25.90
2018-06-02T20:53:36.609Z,25.90
2018-06-02T20:56:04.780Z,25.90
2018-06-02T20:58:32.849Z,25.90
2018-06-02T21:01:00.944Z,25.90
2018-06-02T21:03:29.082Z,25.90
2018-06-02T21:05:57.235Z,25.90
2018-06-02T21:08:25.447Z,25.90
2018-06-02T21:10:53.500Z,25.90
2018-06-02T21:13:21.573Z,25.90
2018-06-02T21:15:49.712Z,25.90
2018-06-02T21:18:17.840Z,25.90
2018-06-02T21:20:45.967Z,25.90
2018-06-02T21:23:14.070Z,25.90
2018-06-02T21:25:42.141Z,25.90
2018-06-02T21:28:10.210Z,25.90
2018-06-02T21:30:38.457Z,25.90
2018-06-02T21:33:06.661Z,25.90
2018-06-02T21:35:34.841Z,25.90
2018-06-02T21:38:03.032Z,25.90
2018-06-02T21:42:59.002Z,25.90
2018-06-02T21:45:27.073Z,25.90
2018-06-02T21:47:55.173Z,25.90
2018-06-02T21:50:23.249Z,25.90
2018-06-02T21:52:51.373Z,25.90
2018-06-02T21:55:19.545Z,25.90
2018-06-02T21:57:47.667Z,25.90
2018-06-02T22:00:15.768Z,25.90
2018-06-02T22:02:43.845Z,25.90
2018-06-02T22:05:11.942Z,25.90
2018-06-02T22:07:40.064Z,25.90
2018-06-02T22:10:08.137Z,25.90
2018-06-02T22:12:36.267Z,25.90
2018-06-02T22:15:04.376Z,25.90
2018-06-02T22:17:32.513Z,25.90
2018-06-02T22:20:00.642Z,25.90
2018-06-02T22:22:28.753Z,25.90
2018-06-02T22:24:56.880Z,25.90
2018-06-02T22:27:24.955Z,25.90
2018-06-02T22:29:53.044Z,25.90
2018-06-02T22:32:21.120Z,25.90
2018-06-02T22:34:49.277Z,25.80
2018-06-02T22:37:17.357Z,25.90
2018-06-02T22:39:45.442Z,25.90
2018-06-02T22:42:13.535Z,25.80
2018-06-02T22:44:41.607Z,25.80
2018-06-02T22:47:09.741Z,25.80
2018-06-02T22:49:37.826Z,25.80
2018-06-02T22:52:05.910Z,25.80
2018-06-02T22:54:34.349Z,25.80
2018-06-02T22:57:02.433Z,25.90
2018-06-02T22:59:30.783Z,25.80
2018-06-02T23:01:58.973Z,25.80
2018-06-02T23:04:27.354Z,25.80
2018-06-02T23:06:55.440Z,25.80
2018-06-02T23:09:23.518Z,25.80
2018-06-02T23:11:51.606Z,25.80
2018-06-02T23:14:19.686Z,25.80
2018-06-02T23:16:47.788Z,25.70
2018-06-02T23:19:15.888Z,25.80
2018-06-02T23:21:43.974Z,25.70
2018-06-02T23:24:12.285Z,25.70
2018-06-02T23:26:40.368Z,25.80
2018-06-02T23:29:08.444Z,25.70
2018-06-02T23:31:36.531Z,25.70
2018-06-02T23:34:04.604Z,25.70
2018-06-02T23:36:32.697Z,25.70
2018-06-02T23:39:00.816Z,25.70
2018-06-02T23:41:28.926Z,25.70
2018-06-02T23:43:57.053Z,25.70
2018-06-02T23:46:25.132Z,25.70
2018-06-02T23:48:53.217Z,25.70
2018-06-02T23:51:21.321Z,25.70
2018-06-02T23:53:49.396Z,25.70
2018-06-02T23:56:17.581Z,25.70
2018-06-02T23:58:45.653Z,25.70
